Terminal Aerodrome Forecast
Issued by NWS Tuscon, AZ

Home | Current Version | Previous Version | Text Only | Print | Product List | Glossary On
Versions: 1 2 3 4 5 6 7 8 9 10 11 12 13 14 15
000
FTUS45 KTWC 282327
TAFDUG
TAF
KDUG 282327Z 2900/2924 18008KT P6SM VCSH SCT060 BKN100
     FM290400 07006KT P6SM SCT080 BKN120
     FM291000 VRB04KT P6SM FEW080 SCT120
     FM292000 11011KT P6SM VCSH SCT080 BKN110=

USA.gov is the U.S. government's official web portal to all federal, state and local government web resources and services.